Time;durP1;ratioP1;P1;durP2;ratioP2;P2;SDS_P1;SDS_P2;PMS_P1;PMS_P2;Temp;Humidity;BMP_temperature;BMP_pressure;BME280_temperature;BME280_humidity;BME280_pressure;Samples;Min_cycle;Max_cycle;Signal;HPM_P1;HPM_P2
2022/08/28 00:00:46;;;;;;;;;;;;;;;22.64;100.00;97692.28;5123993;28;19970;-67
2022/08/28 00:03:13;;;;;;;;;;;;;;;22.86;100.00;97696.44;5121670;28;19976;-65
2022/08/28 00:05:40;;;;;;;;;;;;;;;23.00;100.00;97689.41;5120520;28;19982;-65
2022/08/28 00:08:08;;;;;;;;;;;;;;;22.81;100.00;97692.00;5121295;28;19960;-65
2022/08/28 00:10:38;;;;;;;;;;;;;;;23.08;100.00;97693.13;5123882;28;19955;-66
2022/08/28 00:13:06;;;;;;;;;;;;;;;23.13;100.00;97698.31;5122818;28;19924;-64
2022/08/28 00:15:33;;;;;;;;;;;;;;;23.18;100.00;97700.78;5120330;28;19928;-65
2022/08/28 00:18:00;;;;;;;;;;;;;;;22.99;100.00;97689.78;5120440;28;19924;-66
2022/08/28 00:20:27;;;;;;;;;;;;;;;23.21;100.00;97686.44;5123645;28;19985;-62
2022/08/28 00:22:54;;;;;;;;;;;;;;;23.24;100.00;97682.25;5123599;28;20654;-63
2022/08/28 00:25:23;;;;;;;;;;;;;;;23.12;100.00;97677.66;5125598;27;19991;-62
2022/08/28 00:27:51;;;;;;;;;;;;;;;23.24;100.00;97683.03;5119802;28;19924;-62
2022/08/28 00:30:18;;;;;;;;;;;;;;;23.15;100.00;97689.81;5104334;28;20014;-62
2022/08/28 00:32:44;;;;;;;;;;;;;;;23.24;100.00;97682.25;5123086;28;19930;-61
2022/08/28 00:35:11;;;;;;;;;;;;;;;23.35;100.00;97675.13;5121531;28;19924;-61
2022/08/28 00:37:38;;;;;;;;;;;;;;;23.33;100.00;97674.69;5119543;28;19927;-62
2022/08/28 00:40:06;;;;;;;;;;;;;;;23.34;100.00;97674.34;5120557;28;19924;-62
2022/08/28 00:42:34;;;;;;;;;;;;;;;22.95;100.00;97678.78;5122248;28;19982;-62
2022/08/28 00:45:01;;;;;;;;;;;;;;;23.05;100.00;97669.31;5122555;28;19924;-61
2022/08/28 00:47:27;;;;;;;;;;;;;;;22.94;100.00;97674.47;5119572;28;19924;-62
2022/08/28 00:49:55;;;;;;;;;;;;;;;23.16;100.00;97678.56;5119483;28;19931;-61
2022/08/28 00:52:23;;;;;;;;;;;;;;;23.27;100.00;97676.09;5122686;28;19999;-62
2022/08/28 00:54:51;;;;;;;;;;;;;;;23.38;100.00;97671.69;5125593;28;19924;-61
2022/08/28 00:57:19;;;;;;;;;;;;;;;23.42;100.00;97673.41;5119972;28;19931;-61
2022/08/28 00:59:47;;;;;;;;;;;;;;;23.45;100.00;97680.09;5119328;28;19983;-61
2022/08/28 01:02:13;;;;;;;;;;;;;;;23.38;100.00;97672.50;5121452;28;20066;-62
2022/08/28 01:04:40;;;;;;;;;;;;;;;23.25;100.00;97671.00;5122771;28;19959;-62
2022/08/28 01:07:08;;;;;;;;;;;;;;;23.21;100.00;97667.38;5121433;28;19966;-61
2022/08/28 01:09:36;;;;;;;;;;;;;;;23.23;100.00;97669.78;5118991;28;19920;-61
2022/08/28 01:12:07;;;;;;;;;;;;;;;22.94;100.00;97670.97;5119755;28;19979;-62
2022/08/28 01:14:35;;;;;;;;;;;;;;;22.84;100.00;97679.66;5122557;28;19919;-61
2022/08/28 01:17:03;;;;;;;;;;;;;;;22.77;100.00;97668.56;5121988;28;20403;-61
2022/08/28 01:19:31;;;;;;;;;;;;;;;22.79;100.00;97674.44;5119068;28;19958;-61
2022/08/28 01:22:02;;;;;;;;;;;;;;;22.76;100.00;97675.16;5118932;28;19931;-61
2022/08/28 01:24:30;;;;;;;;;;;;;;;22.53;100.00;97672.94;5120302;27;19966;-61
2022/08/28 01:26:57;;;;;;;;;;;;;;;22.26;100.00;97667.47;5122516;28;19962;-61
2022/08/28 01:29:23;;;;;;;;;;;;;;;22.14;100.00;97662.88;5110205;28;19927;-63
2022/08/28 01:31:50;;;;;;;;;;;;;;;22.09;100.00;97675.91;5110330;28;19924;-61
2022/08/28 01:34:16;;;;;;;;;;;;;;;22.30;100.00;97674.63;5110143;28;20014;-62
2022/08/28 01:36:43;;;;;;;;;;;;;;;22.29;100.00;97675.75;5110030;28;19925;-62
2022/08/28 01:39:12;;;;;;;;;;;;;;;22.72;100.00;97682.41;5110090;28;19928;-61
2022/08/28 01:41:40;;;;;;;;;;;;;;;22.82;100.00;97671.81;5110294;28;19954;-62
2022/08/28 01:44:07;;;;;;;;;;;;;;;22.94;100.00;97690.81;5110245;28;19991;-61
2022/08/28 01:46:33;;;;;;;;;;;;;;;23.01;100.00;97679.31;5110224;28;20363;-62
2022/08/28 01:49:00;;;;;;;;;;;;;;;23.23;100.00;97680.66;5110069;28;19924;-61
2022/08/28 01:51:26;;;;;;;;;;;;;;;23.30;100.00;97678.13;5110072;28;19928;-62
2022/08/28 01:53:53;;;;;;;;;;;;;;;23.06;100.00;97684.50;5115612;28;19970;-61
2022/08/28 01:56:19;;;;;;;;;;;;;;;23.20;100.00;97678.66;5128825;28;19951;-61
2022/08/28 01:58:47;;;;;;;;;;;;;;;23.15;100.00;97690.56;5128793;28;19934;-61
2022/08/28 02:01:16;;;;;;;;;;;;;;;23.32;100.00;97690.25;5126473;28;19924;-62
2022/08/28 02:03:42;;;;;;;;;;;;;;;22.96;100.00;97693.22;5125356;28;19960;-60
2022/08/28 02:06:09;;;;;;;;;;;;;;;22.82;100.00;97693.59;5126454;28;19924;-61
2022/08/28 02:08:36;;;;;;;;;;;;;;;23.09;100.00;97706.41;5128788;28;19946;-60
2022/08/28 02:11:05;;;;;;;;;;;;;;;23.18;100.00;97695.31;5128056;28;19924;-62
2022/08/28 02:13:31;;;;;;;;;;;;;;;23.23;100.00;97705.97;5125203;28;19932;-61
2022/08/28 02:15:59;;;;;;;;;;;;;;;23.02;100.00;97697.25;5125170;28;19959;-61
2022/08/28 02:18:26;;;;;;;;;;;;;;;23.20;100.00;97697.72;5107606;28;19963;-61
2022/08/28 02:20:52;;;;;;;;;;;;;;;22.86;100.00;97689.06;5125155;28;19949;-62
2022/08/28 02:23:18;;;;;;;;;;;;;;;22.89;100.00;97698.47;5128052;28;20441;-61
2022/08/28 02:25:45;;;;;;;;;;;;;;;22.86;100.00;97693.72;5133249;27;19931;-62
2022/08/28 02:28:11;;;;;;;;;;;;;;;22.90;100.00;97698.09;5126900;28;19979;-61
2022/08/28 02:30:38;;;;;;;;;;;;;;;22.71;100.00;97691.75;5128392;28;19924;-62
2022/08/28 02:33:06;;;;;;;;;;;;;;;22.56;100.00;97688.56;5127236;28;20072;-62
2022/08/28 02:35:33;;;;;;;;;;;;;;;22.67;100.00;97696.28;5124868;28;19983;-61
2022/08/28 02:37:59;;;;;;;;;;;;;;;22.83;100.00;97697.13;5106735;28;19947;-61
2022/08/28 02:40:26;;;;;;;;;;;;;;;22.93;100.00;97693.91;5128636;28;19924;-62
2022/08/28 02:42:53;;;;;;;;;;;;;;;22.88;100.00;97692.22;5128671;28;19982;-61
2022/08/28 02:45:19;;;;;;;;;;;;;;;22.99;100.00;97697.97;5125532;28;19951;-61
2022/08/28 02:47:46;;;;;;;;;;;;;;;23.06;100.00;97698.13;5124658;28;19946;-62
2022/08/28 02:50:16;;;;;;;;;;;;;;;23.05;100.00;97694.63;5126858;28;19924;-62
2022/08/28 02:52:42;;;;;;;;;;;;;;;23.19;100.00;97688.75;5128362;28;19971;-61
2022/08/28 02:55:10;;;;;;;;;;;;;;;23.07;100.00;97691.53;5129301;28;19998;-62
2022/08/28 02:57:37;;;;;;;;;;;;;;;23.00;100.00;97689.41;5124803;28;19984;-61
2022/08/28 03:00:05;;;;;;;;;;;;;;;23.04;100.00;97693.03;5125361;28;19992;-62
2022/08/28 03:02:31;;;;;;;;;;;;;;;22.85;100.00;97690.19;5128201;28;19923;-61
2022/08/28 03:04:59;;;;;;;;;;;;;;;22.88;100.00;97694.94;5126023;28;19924;-63
2022/08/28 03:07:27;;;;;;;;;;;;;;;22.85;100.00;97692.13;5112933;28;20408;-61
2022/08/28 03:09:53;;;;;;;;;;;;;;;22.81;100.00;97692.00;5112926;28;19987;-60
2022/08/28 03:12:22;;;;;;;;;;;;;;;22.99;100.00;97692.50;5112909;28;19998;-62
2022/08/28 03:14:49;;;;;;;;;;;;;;;23.06;100.00;97689.94;5112900;28;20367;-62
2022/08/28 03:17:15;;;;;;;;;;;;;;;23.07;100.00;97694.28;5112899;28;19956;-62
2022/08/28 03:19:42;;;;;;;;;;;;;;;22.85;100.00;97689.38;5112797;28;20427;-61
2022/08/28 03:22:08;;;;;;;;;;;;;;;22.92;100.00;97695.03;5112691;28;19971;-61
2022/08/28 03:24:36;;;;;;;;;;;;;;;22.81;100.00;97697.47;5123352;27;19991;-62
2022/08/28 03:27:02;;;;;;;;;;;;;;;22.74;100.00;97694.56;5124064;28;19945;-62
2022/08/28 03:29:29;;;;;;;;;;;;;;;22.36;100.00;97697.72;5121142;28;19928;-62
2022/08/28 03:31:55;;;;;;;;;;;;;;;22.20;100.00;97694.13;5121050;28;19951;-62
2022/08/28 03:34:22;;;;;;;;;;;;;;;22.38;100.00;97698.16;5124214;28;20031;-61
2022/08/28 03:36:48;;;;;;;;;;;;;;;22.54;100.00;97699.03;5124267;28;19931;-61
2022/08/28 03:39:14;;;;;;;;;;;;;;;22.70;100.00;97701.03;5121844;28;19931;-62
2022/08/28 03:41:42;;;;;;;;;;;;;;;22.76;100.00;97694.19;5120915;28;19956;-62
2022/08/28 03:44:09;;;;;;;;;;;;;;;22.68;100.00;97698.66;5122130;28;19951;-61
2022/08/28 03:46:35;;;;;;;;;;;;;;;22.45;100.00;97700.28;5124378;28;19934;-61
2022/08/28 03:49:04;;;;;;;;;;;;;;;22.29;100.00;97696.72;5123499;28;19983;-61
2022/08/28 03:51:32;;;;;;;;;;;;;;;22.32;100.00;97702.25;5120743;28;20039;-62
2022/08/28 03:53:58;;;;;;;;;;;;;;;22.18;100.00;97701.84;5123389;28;19991;-62
2022/08/28 03:56:26;;;;;;;;;;;;;;;22.47;100.00;97698.00;5112109;28;19927;-62
2022/08/28 03:58:56;;;;;;;;;;;;;;;22.50;100.00;97703.56;5112040;28;19920;-61
2022/08/28 04:01:23;;;;;;;;;;;;;;;22.54;100.00;97707.19;5111973;28;19924;-61
2022/08/28 04:03:50;;;;;;;;;;;;;;;22.36;100.00;97700.44;5111958;28;19920;-62
2022/08/28 04:06:17;;;;;;;;;;;;;;;22.33;100.00;97705.78;5111913;28;19928;-62
2022/08/28 04:08:43;;;;;;;;;;;;;;;22.35;100.00;97717.09;5111924;28;19924;-63
2022/08/28 04:11:10;;;;;;;;;;;;;;;22.26;100.00;97714.50;5111816;28;19939;-61
2022/08/28 04:13:36;;;;;;;;;;;;;;;22.17;100.00;97715.78;5111839;28;19920;-62
2022/08/28 04:16:06;;;;;;;;;;;;;;;22.14;100.00;97721.91;5111590;28;19955;-63
2022/08/28 04:18:34;;;;;;;;;;;;;;;22.01;100.00;97718.41;5111654;28;19928;-61
2022/08/28 04:21:01;;;;;;;;;;;;;;;22.10;100.00;97721.03;5111572;28;19983;-61
2022/08/28 04:23:28;;;;;;;;;;;;;;;22.38;100.00;97719.94;5111702;28;19977;-62
2022/08/28 04:25:55;;;;;;;;;;;;;;;22.15;100.00;97718.06;5122897;28;19946;-61
2022/08/28 04:28:21;;;;;;;;;;;;;;;21.99;100.00;97723.41;5123177;28;19954;-61
2022/08/28 04:30:48;;;;;;;;;;;;;;;21.92;100.00;97742.19;5123452;28;19995;-62
2022/08/28 04:33:17;;;;;;;;;;;;;;;21.86;100.00;97732.66;5121023;28;19951;-62
2022/08/28 04:35:43;;;;;;;;;;;;;;;22.01;100.00;97723.84;5119974;28;19924;-62
2022/08/28 04:38:10;;;;;;;;;;;;;;;22.09;100.00;97727.59;5121341;28;20010;-61
2022/08/28 04:40:38;;;;;;;;;;;;;;;22.22;100.00;97724.50;5123381;28;19994;-61
2022/08/28 04:43:04;;;;;;;;;;;;;;;22.39;100.00;97728.88;5122377;28;19959;-61
2022/08/28 04:45:30;;;;;;;;;;;;;;;22.45;100.00;97730.22;5119669;28;19924;-61
2022/08/28 04:47:57;;;;;;;;;;;;;;;22.37;100.00;97725.72;5119829;28;19962;-62
2022/08/28 04:50:25;;;;;;;;;;;;;;;22.18;100.00;97720.88;5119630;28;19924;-61
2022/08/28 04:52:51;;;;;;;;;;;;;;;22.08;100.00;97726.78;5119697;28;19971;-62
2022/08/28 04:55:18;;;;;;;;;;;;;;;21.92;100.00;97737.56;5127889;28;19998;-61
2022/08/28 04:57:44;;;;;;;;;;;;;;;22.02;100.00;97722.72;5119736;28;19924;-62
2022/08/28 05:00:11;;;;;;;;;;;;;;;22.00;100.00;97733.91;5121044;28;19983;-62
2022/08/28 05:02:37;;;;;;;;;;;;;;;22.05;100.00;97732.91;5122885;28;19919;-61
2022/08/28 05:05:04;;;;;;;;;;;;;;;21.90;100.00;97744.47;5121923;28;19985;-61
2022/08/28 05:07:33;;;;;;;;;;;;;;;22.00;100.00;97744.81;5119222;28;19955;-62
2022/08/28 05:09:59;;;;;;;;;;;;;;;21.81;100.00;97751.94;5119242;28;19991;-61
2022/08/28 05:12:25;;;;;;;;;;;;;;;22.12;100.00;97744.03;5122783;28;19970;-61
2022/08/28 05:14:52;;;;;;;;;;;;;;;22.32;100.00;97740.34;5122800;28;19934;-61
2022/08/28 05:17:18;;;;;;;;;;;;;;;22.46;100.00;97745.44;5119769;28;20410;-61
2022/08/28 05:19:46;;;;;;;;;;;;;;;22.52;100.00;97747.56;5119229;28;20015;-62
2022/08/28 05:22:13;;;;;;;;;;;;;;;22.46;100.00;97748.94;5121243;28;20478;-62
2022/08/28 05:24:41;;;;;;;;;;;;;;;22.54;100.00;97750.72;5125323;28;19941;-61
2022/08/28 05:27:08;;;;;;;;;;;;;;;22.65;100.00;97755.69;5121309;28;19991;-62
2022/08/28 05:29:34;;;;;;;;;;;;;;;22.55;100.00;97756.97;5118453;28;19920;-61
2022/08/28 05:32:00;;;;;;;;;;;;;;;22.42;100.00;97750.75;5119205;28;19947;-62
2022/08/28 05:34:27;;;;;;;;;;;;;;;22.46;100.00;97751.66;5122464;28;19987;-62
2022/08/28 05:36:53;;;;;;;;;;;;;;;22.60;100.00;97756.72;5122370;28;19927;-61
2022/08/28 05:39:19;;;;;;;;;;;;;;;22.66;100.00;97768.97;5119386;28;19928;-61
2022/08/28 05:41:47;;;;;;;;;;;;;;;22.73;100.00;97765.69;5118796;28;19956;-62
2022/08/28 05:44:15;;;;;;;;;;;;;;;22.72;100.00;97764.09;5120859;28;19931;-62
2022/08/28 05:46:42;;;;;;;;;;;;;;;22.50;100.00;97773.53;5122222;28;20620;-62
2022/08/28 05:49:09;;;;;;;;;;;;;;;22.51;100.00;97769.69;5102840;28;19991;-61
2022/08/28 05:51:36;;;;;;;;;;;;;;;22.63;100.00;97788.69;5118669;28;19962;-61
2022/08/28 05:54:02;;;;;;;;;;;;;;;22.53;100.00;97776.34;5121859;28;20004;-63
2022/08/28 05:56:29;;;;;;;;;;;;;;;22.33;100.00;97774.59;5122102;28;19991;-62
2022/08/28 05:58:58;;;;;;;;;;;;;;;22.41;100.00;97779.09;5122106;28;19963;-62
2022/08/28 06:01:27;;;;;;;;;;;;;;;22.27;100.00;97784.13;5118592;28;19952;-62
2022/08/28 06:03:55;;;;;;;;;;;;;;;22.34;100.00;97789.78;5118658;28;19924;-61
2022/08/28 06:06:23;;;;;;;;;;;;;;;22.25;100.00;97786.38;5121820;28;19981;-62
2022/08/28 06:08:50;;;;;;;;;;;;;;;22.13;100.00;97789.09;5122137;28;19950;-61
2022/08/28 06:11:19;;;;;;;;;;;;;;;22.09;100.00;97784.69;5119391;28;19966;-63
2022/08/28 06:13:45;;;;;;;;;;;;;;;22.15;100.00;97788.78;5118335;28;19955;-62
2022/08/28 06:16:13;;;;;;;;;;;;;;;22.00;100.00;97796.47;5120184;28;19984;-63
2022/08/28 06:18:40;;;;;;;;;;;;;;;21.94;100.00;97789.66;5122064;28;20018;-62
2022/08/28 06:21:07;;;;;;;;;;;;;;;22.06;100.00;97792.38;5120587;28;19987;-63
2022/08/28 06:23:33;;;;;;;;;;;;;;;22.19;100.00;97789.69;5118372;28;19920;-62
2022/08/28 06:26:00;;;;;;;;;;;;;;;22.14;100.00;97798.06;5124153;28;19983;-61
2022/08/28 06:28:27;;;;;;;;;;;;;;;22.24;100.00;97792.97;5121937;28;19928;-63
2022/08/28 06:30:54;;;;;;;;;;;;;;;22.30;100.00;97783.44;5121990;28;19974;-62
2022/08/28 06:33:22;;;;;;;;;;;;;;;22.28;100.00;97785.69;5118812;28;20462;-61
2022/08/28 06:35:49;;;;;;;;;;;;;;;22.23;100.00;97793.28;5118506;28;19928;-62
2022/08/28 06:38:15;;;;;;;;;;;;;;;21.91;100.00;97797.75;5120572;28;19920;-61
2022/08/28 06:40:43;;;;;;;;;;;;;;;21.94;100.00;97797.06;5123556;28;19952;-62
2022/08/28 06:43:10;;;;;;;;;;;;;;;22.10;100.00;97797.16;5124301;28;19955;-62
2022/08/28 06:45:39;;;;;;;;;;;;;;;21.92;100.00;97802.03;5122147;28;19924;-62
2022/08/28 06:48:06;;;;;;;;;;;;;;;21.95;100.00;97806.78;5123028;28;19975;-62
2022/08/28 06:50:37;;;;;;;;;;;;;;;21.83;100.00;97798.59;5125630;28;20088;-60
2022/08/28 06:53:03;;;;;;;;;;;;;;;21.87;100.00;97804.94;5124781;28;19931;-62
2022/08/28 06:55:30;;;;;;;;;;;;;;;21.86;100.00;97804.16;5124873;28;19931;-63
2022/08/28 06:57:56;;;;;;;;;;;;;;;21.89;100.00;97802.69;5121920;28;19951;-62
2022/08/28 07:00:23;;;;;;;;;;;;;;;22.01;100.00;97810.84;5106900;28;19990;-61
2022/08/28 07:02:49;;;;;;;;;;;;;;;21.64;100.00;97811.91;5125324;28;19927;-61
2022/08/28 07:05:15;;;;;;;;;;;;;;;21.89;100.00;97810.84;5122634;28;19983;-61
2022/08/28 07:07:43;;;;;;;;;;;;;;;21.88;100.00;97817.41;5121766;28;19920;-62
2022/08/28 07:10:10;;;;;;;;;;;;;;;21.90;100.00;97820.59;5123363;28;19963;-62
2022/08/28 07:12:36;;;;;;;;;;;;;;;21.89;100.00;97827.16;5125340;28;19955;-61
2022/08/28 07:15:03;;;;;;;;;;;;;;;22.01;100.00;97819.03;5124975;28;19991;-62
2022/08/28 07:17:30;;;;;;;;;;;;;;;21.87;100.00;97821.25;5121732;28;19920;-63
2022/08/28 07:19:56;;;;;;;;;;;;;;;21.79;100.00;97825.66;5121845;28;19951;-62
2022/08/28 07:22:23;;;;;;;;;;;;;;;21.85;100.00;97823.53;5124952;28;19987;-62
2022/08/28 07:24:51;;;;;;;;;;;;;;;21.86;100.00;97827.81;5127967;28;19923;-62
2022/08/28 07:27:17;;;;;;;;;;;;;;;21.68;100.00;97818.28;5122411;28;19930;-61
2022/08/28 07:29:43;;;;;;;;;;;;;;;21.48;100.00;97831.59;5121300;28;19928;-62
2022/08/28 07:32:10;;;;;;;;;;;;;;;21.46;100.00;97830.34;5122656;28;19991;-62
2022/08/28 07:34:39;;;;;;;;;;;;;;;21.30;100.00;97837.53;5124836;28;19966;-62
2022/08/28 07:37:05;;;;;;;;;;;;;;;21.31;100.00;97830.97;5123618;28;19923;-62
2022/08/28 07:39:32;;;;;;;;;;;;;;;21.31;100.00;97839.91;5121139;28;19924;-62
2022/08/28 07:42:02;;;;;;;;;;;;;;;21.35;100.00;97842.78;5120835;28;20395;-61
2022/08/28 07:47:12;;;;;;;;;;;;;;;21.68;100.00;97848.97;5122446;28;19924;-61
2022/08/28 07:49:39;;;;;;;;;;;;;;;21.86;100.00;97850.38;5120841;28;19935;-62
2022/08/28 07:52:06;;;;;;;;;;;;;;;21.91;100.00;97846.69;5121190;28;19934;-62
2022/08/28 07:54:34;;;;;;;;;;;;;;;21.79;100.00;97857.47;5127058;28;19975;-61
2022/08/28 07:57:02;;;;;;;;;;;;;;;21.91;100.00;97847.44;5124024;28;19924;-61
2022/08/28 07:59:29;;;;;;;;;;;;;;;22.00;100.00;97847.38;5120749;28;19943;-61
2022/08/28 08:01:55;;;;;;;;;;;;;;;22.00;100.00;97850.09;5121005;28;19932;-62
2022/08/28 08:04:22;;;;;;;;;;;;;;;21.95;100.00;97861.16;5124051;28;19951;-63
2022/08/28 08:06:50;;;;;;;;;;;;;;;22.10;100.00;97863.22;5124463;28;20569;-63
2022/08/28 08:09:17;;;;;;;;;;;;;;;22.22;100.00;97860.50;5121902;28;19924;-63
2022/08/28 08:11:44;;;;;;;;;;;;;;;22.19;100.00;97863.91;5120825;28;19932;-63
2022/08/28 08:14:12;;;;;;;;;;;;;;;22.05;100.00;97872.41;5122184;28;19983;-62
2022/08/28 08:16:40;;;;;;;;;;;;;;;21.92;100.00;97870.00;5123955;28;19963;-61
2022/08/28 08:19:08;;;;;;;;;;;;;;;22.10;100.00;97862.44;5122724;28;19930;-63
2022/08/28 08:21:35;;;;;;;;;;;;;;;22.08;100.00;97870.94;5120634;28;19988;-61
2022/08/28 08:24:01;;;;;;;;;;;;;;;22.07;100.00;97872.06;5123479;28;19979;-62
2022/08/28 08:26:28;;;;;;;;;;;;;;;22.10;100.00;97862.44;5123914;28;20015;-62
2022/08/28 08:28:55;;;;;;;;;;;;;;;22.20;100.00;97860.06;5123697;28;20522;-62
2022/08/28 08:31:27;;;;;;;;;;;;;;;22.33;100.00;97856.22;5120179;28;19920;-62
2022/08/28 08:33:55;;;;;;;;;;;;;;;22.49;100.00;97865.28;5120238;28;19987;-61
2022/08/28 08:36:22;;;;;;;;;;;;;;;22.66;100.00;97866.19;5122862;28;20011;-62
2022/08/28 08:38:49;;;;;;;;;;;;;;;22.75;100.00;97870.38;5123389;28;19991;-61
2022/08/28 08:41:19;;;;;;;;;;;;;;;22.74;100.00;97868.81;5121236;28;19924;-62
2022/08/28 08:43:50;;;;;;;;;;;;;;;22.71;100.00;97865.97;5120053;28;19984;-61
2022/08/28 08:46:17;;;;;;;;;;;;;;;22.66;100.00;97875.16;5122180;28;19958;-61
2022/08/28 08:48:46;;;;;;;;;;;;;;;22.73;100.00;97869.94;5123471;28;19951;-62
2022/08/28 08:51:19;;;;;;;;;;;;;;;22.72;100.00;97868.34;5121285;28;19948;-62
2022/08/28 08:53:50;;;;;;;;;;;;;;;22.72;100.00;97881.16;5120444;28;19924;-62
2022/08/28 08:56:20;;;;;;;;;;;;;;;22.73;100.00;97872.66;5123104;28;19924;-62
2022/08/28 08:58:48;;;;;;;;;;;;;;;22.81;100.00;97882.59;5122943;28;19923;-62
2022/08/28 09:01:17;;;;;;;;;;;;;;;22.97;100.00;97874.53;5120579;28;19967;-61
2022/08/28 09:03:49;;;;;;;;;;;;;;;23.04;100.00;97875.53;5118805;28;19991;-63
2022/08/28 09:06:19;;;;;;;;;;;;;;;23.09;100.00;97874.50;5121531;28;19951;-62
2022/08/28 09:08:47;;;;;;;;;;;;;;;22.99;100.00;97888.59;5122999;28;19924;-62
2022/08/28 09:11:30;;;;;;;;;;;;;;;22.96;100.00;97895.50;5120778;28;19971;-62
2022/08/28 09:14:01;;;;;;;;;;;;;;;22.96;100.00;97895.50;5119531;28;19924;-62
2022/08/28 09:16:29;;;;;;;;;;;;;;;23.01;100.00;97889.03;5119355;28;19920;-62
2022/08/28 09:18:58;;;;;;;;;;;;;;;23.07;100.00;97883.00;5119418;28;19923;-62
2022/08/28 09:21:26;;;;;;;;;;;;;;;23.12;100.00;97885.50;5122864;28;19974;-62
2022/08/28 09:23:53;;;;;;;;;;;;;;;23.16;100.00;97885.59;5122738;28;19935;-62
2022/08/28 09:26:21;;;;;;;;;;;;;;;23.33;100.00;97885.31;5122600;28;20027;-61
2022/08/28 09:28:58;;;;;;;;;;;;;;;23.41;100.00;97895.31;5122530;28;19979;-62
2022/08/28 09:31:30;;;;;;;;;;;;;;;23.47;100.00;97896.66;5119063;28;19930;-62
2022/08/28 09:34:15;;;;;;;;;;;;;;;23.52;100.00;97901.84;5119054;28;19987;-61
2022/08/28 09:36:42;;;;;;;;;;;;;;;23.64;100.00;97893.59;5118751;28;19963;-62
2022/08/28 09:39:10;;;;;;;;;;;;;;;23.67;100.00;97887.44;5120148;28;19928;-62
2022/08/28 09:44:22;;;;;;;;;;;;;;;23.32;100.00;97897.34;5119099;28;19931;-62
2022/08/28 09:46:50;;;;;;;;;;;;;;;23.35;100.00;97898.59;5119052;28;19951;-61
2022/08/28 09:49:22;;;;;;;;;;;;;;;23.38;100.00;97900.63;5121534;28;19991;-61
2022/08/28 09:51:49;;;;;;;;;;;;;;;23.49;100.00;97897.09;5122749;28;19966;-62
2022/08/28 09:54:18;;;;;;;;;;;;;;;23.67;100.00;97896.78;5122442;28;19938;-61
2022/08/28 09:56:46;;;;;;;;;;;;;;;23.72;100.00;97901.97;5122592;28;19959;-61
2022/08/28 09:59:13;;;;;;;;;;;;;;;23.78;100.00;97890.47;5120658;28;19951;-61
2022/08/28 10:01:47;;;;;;;;;;;;;;;23.97;100.00;97898.78;5119053;28;19927;-62
2022/08/28 10:04:32;;;;;;;;;;;;;;;24.03;100.00;97907.50;5120678;28;19924;-62
2022/08/28 10:07:03;;;;;;;;;;;;;;;24.00;100.00;97900.81;5122424;28;19924;-61
2022/08/28 10:09:34;;;;;;;;;;;;;;;24.07;100.00;97906.47;5110508;28;19970;-61
2022/08/28 10:12:07;;;;;;;;;;;;;;;24.10;100.00;97905.75;5110276;28;19924;-62
2022/08/28 10:14:50;;;;;;;;;;;;;;;23.98;100.00;97891.41;5111596;28;19947;-62
2022/08/28 10:17:24;;;;;;;;;;;;;;;23.80;100.00;97901.06;5114227;28;19963;-61
2022/08/28 10:19:54;;;;;;;;;;;;;;;23.98;100.00;97902.31;5114305;28;19924;-62
2022/08/28 10:22:29;;;;;;;;;;;;;;;23.98;100.00;97897.66;5114037;28;19970;-61
2022/08/28 10:25:01;;;;;;;;;;;;;;;24.04;100.00;97907.16;5125241;28;20001;-62
2022/08/28 10:27:35;;;;;;;;;;;;;;;24.04;100.00;97915.34;5122613;28;19931;-60
2022/08/28 10:30:06;;;;;;;;;;;;;;;24.26;100.00;97905.78;5122668;28;19982;-60
2022/08/28 10:32:47;;;;;;;;;;;;;;;24.24;100.00;97902.59;5125729;28;19947;-62
2022/08/28 10:35:15;;;;;;;;;;;;;;;24.22;100.00;97906.84;5114734;28;19955;-61
2022/08/28 10:37:47;;;;;;;;;;;;;;;24.29;100.00;97913.28;5122321;28;20896;-61
2022/08/28 10:40:16;;;;;;;;;;;;;;;24.19;100.00;97908.34;5124112;28;19983;-62
2022/08/28 10:42:46;;;;;;;;;;;;;;;24.14;100.00;97903.13;5125673;28;19967;-61
2022/08/28 10:45:14;;;;;;;;;;;;;;;24.04;100.00;97909.88;5123812;28;19962;-62
2022/08/28 10:47:44;;;;;;;;;;;;;;;24.28;100.00;97910.88;5122249;28;19931;-61
2022/08/28 10:50:14;;;;;;;;;;;;;;;24.43;100.00;97907.34;5123447;28;19924;-61
2022/08/28 10:52:45;;;;;;;;;;;;;;;24.56;100.00;97909.66;5125394;28;19987;-61
2022/08/28 10:55:16;;;;;;;;;;;;;;;24.58;100.00;97904.59;5126425;28;19923;-61
2022/08/28 10:57:47;;;;;;;;;;;;;;;24.54;100.00;97900.22;5122093;28;19935;-62
2022/08/28 11:00:15;;;;;;;;;;;;;;;24.61;100.00;97909.38;5124003;28;19932;-61
2022/08/28 11:02:44;;;;;;;;;;;;;;;24.65;100.00;97912.19;5125548;28;19947;-60
2022/08/28 11:05:11;;;;;;;;;;;;;;;24.33;100.00;97908.66;5123489;28;19995;-61
2022/08/28 11:07:40;;;;;;;;;;;;;;;24.34;100.00;97904.00;5121443;28;19920;-61
2022/08/28 11:10:21;;;;;;;;;;;;;;;24.44;100.00;97912.47;5122377;28;19924;-62
2022/08/28 11:12:50;;;;;;;;;;;;;;;24.63;100.00;97911.75;5124686;28;19951;-62
2022/08/28 11:15:35;;;;;;;;;;;;;;;24.79;100.00;97912.50;5122469;28;19950;-61
2022/08/28 11:18:19;;;;;;;;;;;;;;;24.64;100.00;97907.84;5121586;28;20025;-62
2022/08/28 11:20:54;;;;;;;;;;;;;;;24.64;100.00;97910.59;5125001;28;19963;-62
2022/08/28 11:23:23;;;;;;;;;;;;;;;24.59;100.00;97911.66;5121967;28;19928;-61
2022/08/28 11:25:56;;;;;;;;;;;;;;;24.64;100.00;97910.59;5123310;28;20035;-62
2022/08/28 11:28:37;;;;;;;;;;;;;;;24.91;100.00;97900.72;5124632;28;19924;-62
2022/08/28 11:31:22;;;;;;;;;;;;;;;25.00;100.00;97904.84;5123747;28;19987;-62
2022/08/28 11:33:51;;;;;;;;;;;;;;;25.05;100.00;97904.53;5121283;28;19959;-62
2022/08/28 11:36:32;;;;;;;;;;;;;;;25.09;100.00;97901.91;5123309;28;19924;-62
2022/08/28 11:39:01;;;;;;;;;;;;;;;25.06;100.00;97908.88;5124956;27;19924;-62
2022/08/28 11:41:30;;;;;;;;;;;;;;;24.86;99.91;97900.97;5112118;28;19970;-61
2022/08/28 11:44:15;;;;;;;;;;;;;;;24.89;100.00;97903.00;5112096;28;20433;-61
2022/08/28 11:46:42;;;;;;;;;;;;;;;25.19;100.00;97915.00;5112418;28;19959;-62
2022/08/28 11:49:24;;;;;;;;;;;;;;;25.36;100.00;97906.38;5111865;28;19925;-62
2022/08/28 11:52:01;;;;;;;;;;;;;;;25.27;100.00;97894.84;5118602;28;19924;-61
2022/08/28 11:54:35;;;;;;;;;;;;;;;25.01;100.00;97900.13;5124200;28;19924;-62
2022/08/28 11:57:06;;;;;;;;;;;;;;;24.94;100.00;97889.88;5123474;28;19955;-61
2022/08/28 11:59:47;;;;;;;;;;;;;;;25.14;96.79;97891.47;5120204;28;19924;-62
2022/08/28 12:02:42;;;;;;;;;;;;;;;25.38;95.73;97897.81;5119644;28;19924;-62
2022/08/28 12:05:09;;;;;;;;;;;;;;;25.46;97.65;97892.13;5097804;28;19924;-62
2022/08/28 12:07:37;;;;;;;;;;;;;;;25.64;96.50;97893.28;5120222;28;19931;-63
2022/08/28 12:10:26;;;;;;;;;;;;;;;25.57;96.44;97895.88;5120566;28;19924;-62
2022/08/28 12:12:54;;;;;;;;;;;;;;;25.62;93.98;97886.59;5123443;28;19924;-62
2022/08/28 12:15:38;;;;;;;;;;;;;;;25.66;96.04;97892.91;5120234;28;19963;-61
2022/08/28 12:18:05;;;;;;;;;;;;;;;25.78;92.46;97892.75;5120433;28;19934;-62
2022/08/28 12:20:35;;;;;;;;;;;;;;;25.72;92.12;97896.94;5123442;28;19930;-61
2022/08/28 12:23:03;;;;;;;;;;;;;;;25.71;92.64;97887.97;5123077;28;19991;-62
2022/08/28 12:25:31;;;;;;;;;;;;;;;25.73;91.48;97898.53;5126025;27;19947;-62
2022/08/28 12:28:00;;;;;;;;;;;;;;;25.64;91.80;97898.75;5119800;28;19951;-62
2022/08/28 12:30:28;;;;;;;;;;;;;;;25.60;89.68;97895.16;5120041;28;19928;-62
2022/08/28 12:32:56;;;;;;;;;;;;;;;25.33;94.00;97896.16;5119702;28;19951;-62
2022/08/28 12:35:25;;;;;;;;;;;;;;;25.46;92.83;97900.34;5122823;28;19970;-62
2022/08/28 12:38:00;;;;;;;;;;;;;;;25.60;91.92;97892.41;5122970;28;20007;-61
2022/08/28 12:40:27;;;;;;;;;;;;;;;25.70;94.26;97891.03;5119521;28;20022;-62
2022/08/28 12:42:55;;;;;;;;;;;;;;;25.81;92.30;97894.00;5119674;28;20604;-62
2022/08/28 12:45:26;;;;;;;;;;;;;;;25.89;89.56;97888.28;5122385;28;19923;-62
2022/08/28 12:47:54;;;;;;;;;;;;;;;25.77;90.26;97904.88;5122831;28;20019;-62
2022/08/28 12:50:24;;;;;;;;;;;;;;;25.80;89.99;97897.88;5120093;28;19992;-62